バンコク/スワンナプーム の空港の天気 - METARとTAF

スワンナプーム国際空港 ( VTBS / BKK ) - タイ サムットプラーカーン県 (バンコク近郊)
飛行場実況気象(Metar)
観測時間08/16 13:30 ICT (08/16 06:30 UTC)
風向・風速西南西 4m/s
視程10km以上
天気現象
少しの雲 雲底高度 610m
全天の4割程度の雲 雲底高度 1070m
気温31℃
湿度59%
気圧1005hPa
METARVTBS 160630Z 25007KT 210V290 9999 FEW020 SCT035 31/22 Q1005 NOSIG
過去の天気等 Google飛行場航空写真 Wunderground天気予報

過去48時間のMETAR

飛行場予報(TAF)
発表時間: 8/16 12:00 ICT (8/16 05:00 UTC)
予報対象時間: 16日13時 ICT ~ 17日19時 ICT
風向・風速南西 4m/s
視程10km以上
少しの雲 雲底高度 610m
全天の4割程度の雲 雲底高度 3050m
16日15時 ICT ~ 16日19時 ICT に一時的に
風向・風速西南西 8m/s
視程5000m
天気現象雷雨
少しの積乱雲 雲底高度 550m
全天の4割程度の雲 雲底高度 910m
全天の8割程度の雲 雲底高度 3050m
17日15時 ICT ~ 17日19時 ICT に一時的に
風向・風速西南西 8m/s
視程6000m
天気現象弱い雷雨
少しの積乱雲 雲底高度 550m
全天の4割程度の雲 雲底高度 910m
全天の8割程度の雲 雲底高度 3050m
TAF VTBS 160500Z 1606/1712 22008KT 9999 FEW020 SCT100
TEMPO 1608/1612 24015KT 5000 TSRA FEW018CB SCT030 BKN100
TEMPO 1708/1712 25015KT 6000 -TSRA FEW018CB SCT030 BKN100